Time,TemperatureF,DewpointF,PressureIn,WindDirection,WindDirectionDegrees,WindSpeedMPH,WindSpeedGustMPH,Humidity,HourlyPrecipIn,Conditions,Clouds,dailyrainin,SoftwareType,DateUTC
2013-01-03 00:00:00,35.5,35.5,30.11,NE,52,0.0,0.0,100,0.00,,,0.01,Wunderground v.1.15,2013-01-03 08:00:00,
2013-01-03 00:05:00,35.6,35.6,30.10,NE,52,0.0,1.0,100,0.00,,,0.01,Wunderground v.1.15,2013-01-03 08:05:00,
2013-01-03 00:10:00,35.6,35.6,30.10,NE,48,0.0,1.0,100,0.00,,,0.01,Wunderground v.1.15,2013-01-03 08:10:00,
2013-01-03 00:15:00,35.7,35.7,30.10,NE,48,0.0,1.0,100,0.00,,,0.01,Wunderground v.1.15,2013-01-03 08:15:00,
2013-01-03 00:20:00,35.7,35.7,30.10,NE,48,0.0,0.0,100,0.00,,,0.01,Wunderground v.1.15,2013-01-03 08:20:00,
2013-01-03 00:30:00,35.6,35.6,30.10,NE,48,0.0,0.0,100,0.00,,,0.01,Wunderground v.1.15,2013-01-03 08:30:00,
2013-01-03 00:35:00,35.6,35.6,30.09,NE,48,0.0,1.0,100,0.00,,,0.01,Wunderground v.1.15,2013-01-03 08:35:00,
2013-01-03 00:45:00,35.5,35.5,30.09,NE,48,0.0,1.0,100,0.00,,,0.00,Wunderground v.1.15,2013-01-03 08:45:00,
2013-01-03 00:50:00,35.5,35.5,30.09,NE,48,0.0,0.0,100,0.00,,,0.00,Wunderground v.1.15,2013-01-03 08:50:00,
2013-01-03 00:55:00,35.4,35.4,30.09,NE,48,0.0,0.0,100,0.00,,,0.00,Wunderground v.1.15,2013-01-03 08:55:00,
2013-01-03 01:00:00,35.2,35.2,30.08,NE,48,0.0,0.0,100,0.00,,,0.00,Wunderground v.1.15,2013-01-03 09:00:00,
2013-01-03 01:05:00,35.2,35.2,30.08,NE,48,0.0,0.0,100,0.00,,,0.00,Wunderground v.1.15,2013-01-03 09:05:00,
2013-01-03 01:15:00,35.2,35.2,30.08,NE,48,0.0,0.0,100,0.00,,,0.00,Wunderground v.1.15,2013-01-03 09:15:00,
2013-01-03 01:25:00,35.2,35.2,30.08,NNW,344,0.0,0.0,100,0.00,,,0.00,Wunderground v.1.15,2013-01-03 09:25:00,
2013-01-03 01:30:00,35.2,35.2,30.08,NNW,344,0.0,0.0,100,0.00,,,0.00,Wunderground v.1.15,2013-01-03 09:30:00,
2013-01-03 01:35:00,35.1,35.1,30.08,NNW,344,0.0,0.0,100,0.00,,,0.00,Wunderground v.1.15,2013-01-03 09:35:00,
2013-01-03 01:45:00,35.3,35.3,30.08,NNW,344,0.0,0.0,100,0.00,,,0.00,Wunderground v.1.15,2013-01-03 09:45:00,
2013-01-03 01:55:00,35.5,35.5,30.08,NNW,344,0.0,0.0,100,0.00,,,0.00,Wunderground v.1.15,2013-01-03 09:55:00,
2013-01-03 02:00:00,35.3,35.3,30.07,NNW,344,0.0,0.0,100,0.00,,,0.00,Wunderground v.1.15,2013-01-03 10:00:00,
2013-01-03 02:05:00,35.3,35.3,30.07,NNW,344,0.0,1.0,100,0.00,,,0.00,Wunderground v.1.15,2013-01-03 10:05:00,
2013-01-03 02:15:00,35.1,35.1,30.08,NNW,344,0.0,1.0,100,0.00,,,0.00,Wunderground v.1.15,2013-01-03 10:15:00,
2013-01-03 02:20:00,35.1,35.1,30.08,NNW,344,0.0,0.0,100,0.00,,,0.00,Wunderground v.1.15,2013-01-03 10:20:00,
2013-01-03 02:25:00,35.2,35.2,30.07,NNW,344,0.0,0.0,100,0.00,,,0.00,Wunderground v.1.15,2013-01-03 10:25:00,
2013-01-03 02:30:00,35.2,35.2,30.08,NNW,344,0.0,0.0,100,0.00,,,0.00,Wunderground v.1.15,2013-01-03 10:30:00,
2013-01-03 02:40:00,35.1,35.1,30.08,NNW,344,0.0,1.0,100,0.00,,,0.00,Wunderground v.1.15,2013-01-03 10:40:00,
2013-01-03 02:45:00,34.9,34.9,30.08,NNW,344,0.0,1.0,100,0.00,,,0.00,Wunderground v.1.15,2013-01-03 10:45:00,
2013-01-03 02:50:00,34.8,34.8,30.09,NNW,344,0.0,0.0,100,0.00,,,0.00,Wunderground v.1.15,2013-01-03 10:50:00,
2013-01-03 02:55:00,34.9,34.9,30.09,NNW,344,0.0,0.0,100,0.00,,,0.00,Wunderground v.1.15,2013-01-03 10:55:00,
2013-01-03 03:00:00,35.0,35.0,30.08,NE,39,0.0,0.0,100,0.00,,,0.00,Wunderground v.1.15,2013-01-03 11:00:00,
2013-01-03 03:10:00,35.0,35.0,30.08,NE,40,0.0,0.0,100,0.00,,,0.00,Wunderground v.1.15,2013-01-03 11:10:00,
2013-01-03 03:15:00,35.0,35.0,30.08,North,359,0.0,0.0,100,0.00,,,0.00,Wunderground v.1.15,2013-01-03 11:15:00,
2013-01-03 03:20:00,35.0,35.0,30.08,North,359,0.0,0.0,100,0.00,,,0.00,Wunderground v.1.15,2013-01-03 11:20:00,
2013-01-03 03:30:00,34.9,34.9,30.08,North,4,0.0,1.0,100,0.00,,,0.00,Wunderground v.1.15,2013-01-03 11:30:00,
2013-01-03 03:35:00,34.9,34.9,30.08,North,6,0.0,2.0,100,0.00,,,0.00,Wunderground v.1.15,2013-01-03 11:35:00,
2013-01-03 03:40:00,34.7,34.7,30.08,North,6,0.0,2.0,100,0.00,,,0.00,Wunderground v.1.15,2013-01-03 11:40:00,
2013-01-03 03:45:00,34.5,34.5,30.08,North,6,0.0,2.0,100,0.00,,,0.00,Wunderground v.1.15,2013-01-03 11:45:00,
2013-01-03 03:50:00,34.2,34.2,30.07,North,6,0.0,0.0,100,0.00,,,0.00,Wunderground v.1.15,2013-01-03 11:50:00,
2013-01-03 04:00:00,33.8,33.8,30.07,North,5,0.0,0.0,100,0.00,,,0.00,Wunderground v.1.15,2013-01-03 12:00:00,
2013-01-03 04:10:00,33.5,33.5,30.07,North,9,0.0,1.0,100,0.00,,,0.00,Wunderground v.1.15,2013-01-03 12:10:00,
2013-01-03 04:15:00,33.3,33.3,30.07,North,9,0.0,1.0,100,0.00,,,0.00,Wunderground v.1.15,2013-01-03 12:15:00,
2013-01-03 04:20:00,33.3,33.3,30.07,North,9,0.0,0.0,100,0.00,,,0.00,Wunderground v.1.15,2013-01-03 12:20:00,
2013-01-03 04:25:00,33.3,33.3,30.07,North,9,0.0,0.0,100,0.00,,,0.00,Wunderground v.1.15,2013-01-03 12:25:00,
2013-01-03 04:30:00,33.4,33.4,30.07,North,9,0.0,0.0,100,0.00,,,0.00,Wunderground v.1.15,2013-01-03 12:30:00,
2013-01-03 04:40:00,33.5,33.5,30.06,North,9,0.0,1.0,100,0.00,,,0.00,Wunderground v.1.15,2013-01-03 12:40:00,
2013-01-03 04:45:00,33.7,33.7,30.06,North,9,0.0,1.0,100,0.00,,,0.00,Wunderground v.1.15,2013-01-03 12:45:00,
2013-01-03 04:50:00,33.8,33.8,30.06,North,9,0.0,0.0,100,0.00,,,0.00,Wunderground v.1.15,2013-01-03 12:50:00,
2013-01-03 04:55:00,34.0,34.0,30.06,North,8,0.0,0.0,100,0.00,,,0.00,Wunderground v.1.15,2013-01-03 12:55:00,
2013-01-03 05:00:00,34.1,34.1,30.06,North,8,0.0,0.0,100,0.00,,,0.00,Wunderground v.1.15,2013-01-03 13:00:00,
2013-01-03 05:10:00,34.4,34.4,30.06,North,8,0.0,1.0,100,0.00,,,0.00,Wunderground v.1.15,2013-01-03 13:10:00,
2013-01-03 05:15:00,34.6,34.6,30.06,NNW,333,0.0,1.0,100,0.00,,,0.00,Wunderground v.1.15,2013-01-03 13:15:00,
2013-01-03 05:25:00,35.1,35.1,30.06,NNW,334,0.0,0.0,100,0.00,,,0.00,Wunderground v.1.15,2013-01-03 13:25:00,
2013-01-03 05:30:00,35.3,35.3,30.06,NNW,334,0.0,0.0,100,0.00,,,0.00,Wunderground v.1.15,2013-01-03 13:30:00,
2013-01-03 05:35:00,35.5,35.5,30.06,NNW,334,0.0,1.0,100,0.00,,,0.00,Wunderground v.1.15,2013-01-03 13:35:00,
2013-01-03 05:40:00,35.7,35.7,30.06,NNW,334,0.0,1.0,100,0.00,,,0.00,Wunderground v.1.15,2013-01-03 13:40:00,
2013-01-03 05:45:00,35.8,35.8,30.06,NNW,334,0.0,1.0,100,0.00,,,0.00,Wunderground v.1.15,2013-01-03 13:45:00,
2013-01-03 05:55:00,35.9,35.9,30.06,NNW,334,0.0,0.0,100,0.00,,,0.00,Wunderground v.1.15,2013-01-03 13:55:00,
2013-01-03 06:00:00,35.9,35.9,30.06,NNW,334,0.0,0.0,100,0.00,,,0.00,Wunderground v.1.15,2013-01-03 14:00:00,
2013-01-03 06:05:00,36.0,36.0,30.06,NNW,334,0.0,1.0,100,0.00,,,0.00,Wunderground v.1.15,2013-01-03 14:05:00,
2013-01-03 06:15:00,36.1,36.1,30.06,NNW,334,0.0,1.0,100,0.00,,,0.00,Wunderground v.1.15,2013-01-03 14:15:00,
2013-01-03 06:25:00,36.2,36.2,30.06,NNW,334,0.0,0.0,100,0.00,,,0.00,Wunderground v.1.15,2013-01-03 14:25:00,
2013-01-03 06:35:00,36.2,36.2,30.06,NW,323,0.0,1.0,100,0.00,,,0.00,Wunderground v.1.15,2013-01-03 14:35:00,
2013-01-03 06:40:00,36.3,36.3,30.05,NW,323,0.0,1.0,100,0.00,,,0.00,Wunderground v.1.15,2013-01-03 14:40:00,
2013-01-03 06:45:00,36.3,36.3,30.06,NW,323,0.0,1.0,100,0.00,,,0.00,Wunderground v.1.15,2013-01-03 14:45:00,
2013-01-03 06:50:00,36.3,36.3,30.06,NW,323,0.0,0.0,100,0.00,,,0.00,Wunderground v.1.15,2013-01-03 14:50:00,
2013-01-03 06:55:00,36.4,36.4,30.06,NW,323,0.0,0.0,100,0.00,,,0.00,Wunderground v.1.15,2013-01-03 14:55:00,
2013-01-03 07:00:00,36.4,36.4,30.06,NW,323,0.0,0.0,100,0.00,,,0.00,Wunderground v.1.15,2013-01-03 15:00:00,
2013-01-03 07:10:00,36.5,36.5,30.06,NW,323,0.0,1.0,100,0.00,,,0.00,Wunderground v.1.15,2013-01-03 15:10:00,
2013-01-03 07:15:00,36.5,36.5,30.06,NW,323,0.0,1.0,100,0.00,,,0.00,Wunderground v.1.15,2013-01-03 15:15:00,
2013-01-03 07:20:00,36.7,36.7,30.06,NW,323,0.0,0.0,100,0.00,,,0.00,Wunderground v.1.15,2013-01-03 15:20:00,
2013-01-03 07:25:00,36.8,36.8,30.06,NW,323,0.0,0.0,100,0.00,,,0.00,Wunderground v.1.15,2013-01-03 15:25:00,
2013-01-03 07:30:00,36.9,36.9,30.06,NW,323,0.0,0.0,100,0.00,,,0.00,Wunderground v.1.15,2013-01-03 15:30:00,
2013-01-03 07:35:00,37.1,37.1,30.06,NW,323,0.0,0.0,100,0.00,,,0.00,Wunderground v.1.15,2013-01-03 15:35:00,
2013-01-03 07:45:00,37.4,37.4,30.06,North,349,0.0,0.0,100,0.00,,,0.00,Wunderground v.1.15,2013-01-03 15:45:00,
2013-01-03 07:55:00,37.9,37.9,30.06,NNW,330,0.0,1.0,100,0.00,,,0.00,Wunderground v.1.15,2013-01-03 15:55:00,
2013-01-03 08:00:00,38.0,38.0,30.06,NNW,330,0.0,0.0,100,0.00,,,0.00,Wunderground v.1.15,2013-01-03 16:00:00,
2013-01-03 08:05:00,38.0,38.0,30.06,NNW,330,0.0,2.0,100,0.00,,,0.00,Wunderground v.1.15,2013-01-03 16:05:00,
2013-01-03 08:10:00,38.1,38.1,30.06,NNW,330,0.0,2.0,100,0.00,,,0.00,Wunderground v.1.15,2013-01-03 16:10:00,
2013-01-03 08:15:00,38.2,38.2,30.06,ESE,105,0.0,2.0,100,0.00,,,0.00,Wunderground v.1.15,2013-01-03 16:15:00,
2013-01-03 08:25:00,38.4,38.1,30.07,ESE,103,0.0,0.0,99,0.00,,,0.00,Wunderground v.1.15,2013-01-03 16:25:00,
2013-01-03 08:30:00,38.5,38.5,30.07,ESE,103,0.0,0.0,100,0.00,,,0.00,Wunderground v.1.15,2013-01-03 16:30:00,
2013-01-03 08:35:00,38.5,38.5,30.08,ESE,103,0.0,2.0,100,0.00,,,0.00,Wunderground v.1.15,2013-01-03 16:35:00,
2013-01-03 08:45:00,38.6,38.6,30.08,ESE,104,0.0,2.0,100,0.00,,,0.00,Wunderground v.1.15,2013-01-03 16:45:00,
2013-01-03 08:50:00,38.7,38.7,30.08,ESE,104,0.0,0.0,100,0.00,,,0.00,Wunderground v.1.15,2013-01-03 16:50:00,
2013-01-03 08:55:00,38.8,38.8,30.08,ESE,104,0.0,0.0,100,0.00,,,0.01,Wunderground v.1.15,2013-01-03 16:55:00,
2013-01-03 09:00:00,38.9,38.9,30.08,ESE,104,0.0,0.0,100,0.00,,,0.01,Wunderground v.1.15,2013-01-03 17:00:00,
2013-01-03 09:10:00,39.2,39.2,30.09,ESE,104,0.0,1.0,100,0.00,,,0.01,Wunderground v.1.15,2013-01-03 17:10:00,
2013-01-03 09:15:00,39.4,39.1,30.09,ESE,104,0.0,1.0,99,0.00,,,0.01,Wunderground v.1.15,2013-01-03 17:15:00,
2013-01-03 09:20:00,39.5,39.2,30.10,ESE,104,0.0,0.0,99,0.00,,,0.01,Wunderground v.1.15,2013-01-03 17:20:00,
2013-01-03 09:25:00,39.5,39.0,30.10,ESE,104,0.0,0.0,98,0.00,,,0.01,Wunderground v.1.15,2013-01-03 17:25:00,
2013-01-03 09:35:00,39.9,39.1,30.10,ENE,68,0.0,0.0,97,0.00,,,0.01,Wunderground v.1.15,2013-01-03 17:35:00,
2013-01-03 09:40:00,39.9,39.1,30.11,ENE,69,0.0,0.0,97,0.00,,,0.01,Wunderground v.1.15,2013-01-03 17:40:00,
2013-01-03 09:45:00,40.1,39.3,30.11,SE,129,0.0,0.0,97,0.00,,,0.01,Wunderground v.1.15,2013-01-03 17:45:00,
2013-01-03 09:50:00,40.3,39.8,30.11,SE,129,0.0,0.0,98,0.00,,,0.01,Wunderground v.1.15,2013-01-03 17:50:00,
2013-01-03 09:55:00,40.7,40.2,30.11,North,351,0.0,0.0,98,0.00,,,0.01,Wunderground v.1.15,2013-01-03 17:55:00,
2013-01-03 10:05:00,41.3,41.0,30.11,SE,145,0.0,1.0,99,0.00,,,0.01,Wunderground v.1.15,2013-01-03 18:05:00,
2013-01-03 10:10:00,41.5,41.2,30.11,SE,145,0.0,1.0,99,0.00,,,0.01,Wunderground v.1.15,2013-01-03 18:10:00,
2013-01-03 10:15:00,41.7,41.4,30.11,SE,144,0.0,1.0,99,0.00,,,0.01,Wunderground v.1.15,2013-01-03 18:15:00,
2013-01-03 10:20:00,41.9,41.9,30.11,SE,141,0.0,0.0,100,0.00,,,0.01,Wunderground v.1.15,2013-01-03 18:20:00,
2013-01-03 10:30:00,42.4,42.4,30.11,SE,142,0.0,0.0,100,0.00,,,0.01,Wunderground v.1.15,2013-01-03 18:30:00,
2013-01-03 10:35:00,42.8,42.8,30.11,SE,144,0.0,2.0,100,0.00,,,0.01,Wunderground v.1.15,2013-01-03 18:35:00,
2013-01-03 10:40:00,43.3,43.3,30.11,SE,144,0.0,2.0,100,0.00,,,0.01,Wunderground v.1.15,2013-01-03 18:40:00,
2013-01-03 10:45:00,43.7,43.7,30.11,SE,134,0.0,2.0,100,0.00,,,0.01,Wunderground v.1.15,2013-01-03 18:45:00,
2013-01-03 10:50:00,44.2,44.2,30.10,SE,135,0.0,0.0,100,0.00,,,0.01,Wunderground v.1.15,2013-01-03 18:50:00,
2013-01-03 10:55:00,44.5,44.5,30.10,SE,135,0.0,0.0,100,0.00,,,0.01,Wunderground v.1.15,2013-01-03 18:55:00,
2013-01-03 11:00:00,44.9,44.9,30.10,SE,135,0.0,0.0,100,0.00,,,0.01,Wunderground v.1.15,2013-01-03 19:00:00,
2013-01-03 11:10:00,45.4,45.4,30.10,SE,135,0.0,2.0,100,0.00,,,0.01,Wunderground v.1.15,2013-01-03 19:10:00,
2013-01-03 11:15:00,45.7,45.7,30.10,SW,214,0.0,2.0,100,0.00,,,0.01,Wunderground v.1.15,2013-01-03 19:15:00,
2013-01-03 12:00:00,48.9,48.1,30.09,WNW,297,0.0,1.0,97,0.00,,,0.01,Wunderground v.1.15,2013-01-03 20:00:00,
2013-01-03 12:05:00,49.6,48.5,30.08,SSE,148,0.0,5.0,96,0.00,,,0.01,Wunderground v.1.15,2013-01-03 20:05:00,
2013-01-03 12:10:00,50.0,48.9,30.08,SSE,160,0.0,5.0,96,0.00,,,0.01,Wunderground v.1.15,2013-01-03 20:10:00,
2013-01-03 12:15:00,50.5,48.6,30.08,NW,316,0.0,5.0,93,0.00,,,0.01,Wunderground v.1.15,2013-01-03 20:15:00,
2013-01-03 12:20:00,51.2,48.7,30.08,NNW,332,1.0,1.0,91,0.00,,,0.01,Wunderground v.1.15,2013-01-03 20:20:00,
2013-01-03 12:25:00,51.8,49.0,30.08,WNW,302,1.0,1.0,90,0.00,,,0.01,Wunderground v.1.15,2013-01-03 20:25:00,
2013-01-03 12:30:00,51.7,49.5,30.08,South,188,1.0,1.0,92,0.00,,,0.01,Wunderground v.1.15,2013-01-03 20:30:00,
2013-01-03 12:40:00,51.7,49.2,30.08,SE,128,0.0,7.0,91,0.00,,,0.01,Wunderground v.1.15,2013-01-03 20:40:00,
2013-01-03 12:45:00,51.9,49.1,30.08,NW,321,1.0,7.0,90,0.00,,,0.01,Wunderground v.1.15,2013-01-03 20:45:00,
2013-01-03 12:50:00,52.2,49.7,30.08,North,356,0.0,1.0,91,0.00,,,0.01,Wunderground v.1.15,2013-01-03 20:50:00,
2013-01-03 12:55:00,52.7,48.6,30.08,NNW,331,1.0,1.0,86,0.00,,,0.01,Wunderground v.1.15,2013-01-03 20:55:00,
2013-01-03 13:00:00,52.8,48.7,30.08,NW,325,2.0,2.0,86,0.00,,,0.01,Wunderground v.1.15,2013-01-03 21:00:00,
2013-01-03 13:05:00,52.8,49.0,30.08,WNW,286,1.0,5.0,87,0.00,,,0.01,Wunderground v.1.15,2013-01-03 21:05:00,
2013-01-03 13:15:00,52.9,49.1,30.08,SE,141,2.0,2.0,87,0.00,,,0.01,Wunderground v.1.15,2013-01-03 21:15:00,
2013-01-03 13:20:00,52.9,48.8,30.08,NW,326,2.0,3.0,86,0.00,,,0.01,Wunderground v.1.15,2013-01-03 21:20:00,
2013-01-03 13:25:00,52.8,48.4,30.08,SW,236,2.0,3.0,85,0.00,,,0.01,Wunderground v.1.15,2013-01-03 21:25:00,
2013-01-03 13:30:00,53.1,48.4,30.08,WNW,297,2.0,2.0,84,0.00,,,0.01,Wunderground v.1.15,2013-01-03 21:30:00,
2013-01-03 13:35:00,53.2,48.8,30.08,SW,220,1.0,9.0,85,0.00,,,0.01,Wunderground v.1.15,2013-01-03 21:35:00,
2013-01-03 13:40:00,53.2,48.8,30.08,NNE,27,1.0,9.0,85,0.00,,,0.01,Wunderground v.1.15,2013-01-03 21:40:00,
2013-01-03 13:45:00,53.4,49.0,30.08,NW,306,1.0,9.0,85,0.00,,,0.01,Wunderground v.1.15,2013-01-03 21:45:00,
2013-01-03 13:55:00,53.1,48.4,30.09,West,273,1.0,2.0,84,0.00,,,0.01,Wunderground v.1.15,2013-01-03 21:55:00,
2013-01-03 14:00:00,53.2,47.8,30.09,NW,315,1.0,2.0,82,0.00,,,0.01,Wunderground v.1.15,2013-01-03 22:00:00,
2013-01-03 14:05:00,53.6,47.9,30.09,NNE,30,1.0,9.0,81,0.00,,,0.01,Wunderground v.1.15,2013-01-03 22:05:00,
2013-01-03 14:10:00,53.8,47.8,30.09,SE,144,2.0,2.0,80,0.00,,,0.01,Wunderground v.1.15,2013-01-03 22:10:00,
2013-01-03 14:15:00,53.8,48.4,30.09,West,259,2.0,2.0,82,0.00,,,0.01,Wunderground v.1.15,2013-01-03 22:15:00,
2013-01-03 14:20:00,53.6,48.6,30.10,NW,320,2.0,5.0,83,0.00,,,0.01,Wunderground v.1.15,2013-01-03 22:20:00,
2013-01-03 14:30:00,53.6,48.2,30.10,NW,311,2.0,2.0,82,0.00,,,0.01,Wunderground v.1.15,2013-01-03 22:30:00,
2013-01-03 14:35:00,53.6,48.2,30.10,NW,304,1.0,4.0,82,0.00,,,0.01,Wunderground v.1.15,2013-01-03 22:35:00,
2013-01-03 14:40:00,53.7,48.3,30.11,NW,304,2.0,7.0,82,0.00,,,0.01,Wunderground v.1.15,2013-01-03 22:40:00,
2013-01-03 14:45:00,53.6,48.9,30.10,WNW,289,2.0,7.0,84,0.00,,,0.01,Wunderground v.1.15,2013-01-03 22:45:00,
2013-01-03 14:50:00,53.3,48.9,30.11,WNW,287,2.0,3.0,85,0.00,,,0.01,Wunderground v.1.15,2013-01-03 22:50:00,
2013-01-03 14:55:00,53.3,48.6,30.11,West,259,2.0,3.0,84,0.00,,,0.01,Wunderground v.1.15,2013-01-03 22:55:00,
2013-01-03 15:05:00,53.0,48.3,30.12,NNW,329,1.0,10.0,84,0.00,,,0.01,Wunderground v.1.15,2013-01-03 23:05:00,
2013-01-03 15:10:00,52.9,48.8,30.12,NW,304,1.0,10.0,86,0.00,,,0.01,Wunderground v.1.15,2013-01-03 23:10:00,
2013-01-03 15:15:00,52.9,48.5,30.12,WSW,239,1.0,10.0,85,0.00,,,0.01,Wunderground v.1.15,2013-01-03 23:15:00,
2013-01-03 15:20:00,52.9,48.2,30.12,NW,314,1.0,3.0,84,0.00,,,0.01,Wunderground v.1.15,2013-01-03 23:20:00,
2013-01-03 15:30:00,53.1,48.7,30.13,North,356,1.0,1.0,85,0.00,,,0.01,Wunderground v.1.15,2013-01-03 23:30:00,
2013-01-03 15:35:00,52.8,48.4,30.12,NW,319,1.0,8.0,85,0.00,,,0.01,Wunderground v.1.15,2013-01-03 23:35:00,
2013-01-03 15:45:00,52.8,48.1,30.13,NNE,12,1.0,1.0,84,0.00,,,0.01,Wunderground v.1.15,2013-01-03 23:45:00,
2013-01-03 15:50:00,52.8,48.1,30.13,NNW,333,1.0,1.0,84,0.00,,,0.01,Wunderground v.1.15,2013-01-03 23:50:00,
2013-01-03 15:55:00,52.8,48.1,30.13,WNW,290,1.0,1.0,84,0.00,,,0.01,Wunderground v.1.15,2013-01-03 23:55:00,
2013-01-03 16:00:00,52.8,48.4,30.14,SW,227,1.0,1.0,85,0.00,,,0.01,Wunderground v.1.15,2013-01-04 00:00:00,
2013-01-03 16:05:00,52.7,48.3,30.14,NW,318,1.0,8.0,85,0.00,,,0.01,Wunderground v.1.15,2013-01-04 00:05:00,
2013-01-03 16:15:00,52.4,48.6,30.15,West,270,1.0,4.0,87,0.00,,,0.01,Wunderground v.1.15,2013-01-04 00:15:00,
2013-01-03 16:20:00,52.4,48.3,30.14,SSW,201,2.0,2.0,86,0.00,,,0.01,Wunderground v.1.15,2013-01-04 00:20:00,
2013-01-03 16:25:00,52.4,48.3,30.15,WSW,238,2.0,2.0,86,0.00,,,0.01,Wunderground v.1.15,2013-01-04 00:25:00,
2013-01-03 16:30:00,52.5,48.4,30.15,NW,308,2.0,2.0,86,0.00,,,0.01,Wunderground v.1.15,2013-01-04 00:30:00,
2013-01-03 16:40:00,52.0,48.3,30.15,NW,321,1.0,8.0,87,0.00,,,0.01,Wunderground v.1.15,2013-01-04 00:40:00,
2013-01-03 16:45:00,52.0,48.3,30.15,WSW,254,1.0,8.0,87,0.00,,,0.01,Wunderground v.1.15,2013-01-04 00:45:00,
2013-01-03 16:55:00,51.8,47.7,30.16,SSE,155,1.0,1.0,86,0.00,,,0.01,Wunderground v.1.15,2013-01-04 00:55:00,
2013-01-03 17:05:00,51.7,48.0,30.16,SSW,210,1.0,8.0,87,0.00,,,0.01,Wunderground v.1.15,2013-01-04 01:05:00,
2013-01-03 17:10:00,51.6,48.2,30.16,WNW,296,1.0,1.0,88,0.00,,,0.01,Wunderground v.1.15,2013-01-04 01:10:00,
2013-01-03 17:15:00,51.7,48.3,30.16,North,5,1.0,1.0,88,0.00,,,0.01,Wunderground v.1.15,2013-01-04 01:15:00,
2013-01-03 17:20:00,51.6,48.2,30.17,North,5,1.0,1.0,88,0.00,,,0.01,Wunderground v.1.15,2013-01-04 01:20:00,
2013-01-03 17:25:00,51.5,48.4,30.17,NW,304,1.0,1.0,89,0.00,,,0.01,Wunderground v.1.15,2013-01-04 01:25:00,
2013-01-03 17:30:00,51.6,48.5,30.17,North,359,1.0,1.0,89,0.00,,,0.01,Wunderground v.1.15,2013-01-04 01:30:00,
2013-01-03 17:40:00,51.6,48.5,30.18,WSW,250,1.0,1.0,89,0.00,,,0.01,Wunderground v.1.15,2013-01-04 01:40:00,
2013-01-03 17:45:00,51.3,48.5,30.18,NNW,345,0.0,2.0,90,0.00,,,0.01,Wunderground v.1.15,2013-01-04 01:45:00,
2013-01-03 17:50:00,51.4,48.9,30.18,SSE,153,1.0,1.0,91,0.00,,,0.01,Wunderground v.1.15,2013-01-04 01:50:00,
2013-01-03 17:55:00,51.2,49.0,30.18,WSW,257,0.0,1.0,92,0.00,,,0.01,Wunderground v.1.15,2013-01-04 01:55:00,
2013-01-03 18:00:00,50.9,48.9,30.19,WNW,292,0.0,1.0,93,0.00,,,0.01,Wunderground v.1.15,2013-01-04 02:00:00,
2013-01-03 18:10:00,50.7,48.7,30.19,NNW,339,1.0,1.0,93,0.00,,,0.01,Wunderground v.1.15,2013-01-04 02:10:00,
2013-01-03 18:15:00,50.6,48.9,30.19,WNW,302,1.0,1.0,94,0.00,,,0.01,Wunderground v.1.15,2013-01-04 02:15:00,
2013-01-03 18:25:00,50.4,49.0,30.19,SSE,148,1.0,1.0,95,0.00,,,0.01,Wunderground v.1.15,2013-01-04 02:25:00,
2013-01-03 18:30:00,50.4,49.0,30.20,NNW,327,1.0,2.0,95,0.00,,,0.01,Wunderground v.1.15,2013-01-04 02:30:00,
2013-01-03 18:35:00,50.4,49.0,30.20,WNW,298,1.0,5.0,95,0.00,,,0.01,Wunderground v.1.15,2013-01-04 02:35:00,
2013-01-03 18:40:00,50.3,49.2,30.21,NE,54,1.0,5.0,96,0.00,,,0.01,Wunderground v.1.15,2013-01-04 02:40:00,
2013-01-03 18:45:00,50.2,49.4,30.21,West,277,1.0,5.0,97,0.00,,,0.01,Wunderground v.1.15,2013-01-04 02:45:00,
2013-01-03 18:55:00,50.0,49.5,30.22,WNW,302,1.0,1.0,98,0.18,,,0.03,Wunderground v.1.15,2013-01-04 02:55:00,
2013-01-03 19:00:00,49.9,49.4,30.21,NW,311,1.0,1.0,98,0.09,,,0.03,Wunderground v.1.15,2013-01-04 03:00:00,
2013-01-03 19:10:00,49.8,49.5,30.21,NW,310,0.0,7.0,99,0.07,,,0.04,Wunderground v.1.15,2013-01-04 03:10:00,
2013-01-03 19:15:00,49.8,49.5,30.21,West,272,0.0,7.0,99,0.04,,,0.04,Wunderground v.1.15,2013-01-04 03:15:00,
2013-01-03 19:20:00,49.9,49.6,30.22,SW,231,0.0,0.0,99,0.00,,,0.04,Wunderground v.1.15,2013-01-04 03:20:00,
2013-01-03 19:25:00,49.9,49.6,30.22,NW,307,0.0,4.0,99,0.00,,,0.04,Wunderground v.1.15,2013-01-04 03:25:00,
2013-01-03 19:30:00,50.0,49.7,30.22,NW,314,0.0,0.0,99,0.00,,,0.04,Wunderground v.1.15,2013-01-04 03:30:00,
2013-01-03 19:35:00,50.0,49.7,30.22,SW,226,0.0,7.0,99,0.00,,,0.04,Wunderground v.1.15,2013-01-04 03:35:00,
2013-01-03 19:45:00,49.9,49.6,30.23,NE,41,0.0,7.0,99,0.00,,,0.04,Wunderground v.1.15,2013-01-04 03:45:00,
2013-01-03 19:50:00,50.0,49.7,30.23,WNW,289,1.0,1.0,99,0.00,,,0.04,Wunderground v.1.15,2013-01-04 03:50:00,
2013-01-03 19:55:00,50.0,49.7,30.23,WNW,293,1.0,1.0,99,0.00,,,0.04,Wunderground v.1.15,2013-01-04 03:55:00,
2013-01-03 20:00:00,49.9,49.6,30.24,WNW,291,0.0,0.0,99,0.00,,,0.04,Wunderground v.1.15,2013-01-04 04:00:00,
2013-01-03 20:05:00,49.9,49.6,30.24,North,357,0.0,4.0,99,0.00,,,0.05,Wunderground v.1.15,2013-01-04 04:05:00,
2013-01-03 20:15:00,49.9,49.6,30.24,North,351,0.0,4.0,99,0.00,,,0.05,Wunderground v.1.15,2013-01-04 04:15:00,
2013-01-03 20:20:00,49.9,49.6,30.24,NW,324,0.0,0.0,99,0.28,,,0.07,Wunderground v.1.15,2013-01-04 04:20:00,
2013-01-03 20:25:00,49.9,49.6,30.25,NNW,335,0.0,1.0,99,0.16,,,0.08,Wunderground v.1.15,2013-01-04 04:25:00,
2013-01-03 20:30:00,49.8,49.5,30.25,SW,229,0.0,0.0,99,0.07,,,0.08,Wunderground v.1.15,2013-01-04 04:30:00,
2013-01-03 20:35:00,49.7,49.4,30.25,SW,235,0.0,3.0,99,0.04,,,0.08,Wunderground v.1.15,2013-01-04 04:35:00,
2013-01-03 20:45:00,49.5,49.2,30.25,SE,134,0.0,3.0,99,0.00,,,0.08,Wunderground v.1.15,2013-01-04 04:45:00,
2013-01-03 20:50:00,49.5,49.2,30.25,SE,136,0.0,0.0,99,0.00,,,0.08,Wunderground v.1.15,2013-01-04 04:50:00,
2013-01-03 20:55:00,49.5,49.2,30.25,SE,136,0.0,0.0,99,0.00,,,0.08,Wunderground v.1.15,2013-01-04 04:55:00,
2013-01-03 21:00:00,49.5,49.5,30.25,WNW,303,0.0,0.0,100,0.00,,,0.08,Wunderground v.1.15,2013-01-04 05:00:00,
2013-01-03 21:05:00,49.6,49.6,30.26,WNW,294,0.0,5.0,100,0.00,,,0.08,Wunderground v.1.15,2013-01-04 05:05:00,
2013-01-03 21:10:00,49.5,49.5,30.26,WSW,242,0.0,5.0,100,0.00,,,0.09,Wunderground v.1.15,2013-01-04 05:10:00,
2013-01-03 21:15:00,49.6,49.6,30.26,NNW,338,0.0,5.0,100,0.09,,,0.10,Wunderground v.1.15,2013-01-04 05:15:00,
2013-01-03 21:20:00,49.7,49.7,30.26,NW,304,0.0,0.0,100,0.17,,,0.11,Wunderground v.1.15,2013-01-04 05:20:00,
2013-01-03 21:25:00,49.7,49.7,30.26,ESE,113,0.0,0.0,100,0.09,,,0.12,Wunderground v.1.15,2013-01-04 05:25:00,
2013-01-03 21:30:00,49.8,49.5,30.26,ENE,58,1.0,1.0,99,0.09,,,0.12,Wunderground v.1.15,2013-01-04 05:30:00,
2013-01-03 21:40:00,49.7,49.4,30.26,NW,319,0.0,2.0,99,0.05,,,0.13,Wunderground v.1.15,2013-01-04 05:40:00,
2013-01-03 21:45:00,49.6,49.3,30.26,WSW,250,0.0,2.0,99,0.05,,,0.13,Wunderground v.1.15,2013-01-04 05:45:00,
2013-01-03 21:50:00,49.5,49.2,30.27,SSW,212,0.0,0.0,99,0.04,,,0.13,Wunderground v.1.15,2013-01-04 05:50:00,
2013-01-03 21:55:00,49.4,49.1,30.27,SSW,212,0.0,0.0,99,0.00,,,0.13,Wunderground v.1.15,2013-01-04 05:55:00,
2013-01-03 22:00:00,49.3,49.0,30.27,NNE,16,0.0,0.0,99,0.00,,,0.13,Wunderground v.1.15,2013-01-04 06:00:00,
2013-01-03 22:05:00,49.2,48.9,30.27,NNW,327,0.0,7.0,99,0.00,,,0.13,Wunderground v.1.15,2013-01-04 06:05:00,
2013-01-03 22:15:00,49.1,48.8,30.28,NNW,327,0.0,7.0,99,0.00,,,0.13,Wunderground v.1.15,2013-01-04 06:15:00,
2013-01-03 22:25:00,49.0,48.7,30.28,ENE,65,0.0,0.0,99,0.00,,,0.13,Wunderground v.1.15,2013-01-04 06:25:00,
2013-01-03 22:30:00,49.0,49.0,30.28,NNW,341,0.0,0.0,100,0.00,,,0.13,Wunderground v.1.15,2013-01-04 06:30:00,
2013-01-03 22:35:00,49.0,48.7,30.28,NNW,341,0.0,2.0,99,0.00,,,0.13,Wunderground v.1.15,2013-01-04 06:35:00,
2013-01-03 22:45:00,48.8,48.8,30.28,NNW,341,0.0,2.0,100,0.00,,,0.13,Wunderground v.1.15,2013-01-04 06:45:00,
2013-01-03 22:50:00,48.7,48.7,30.29,NNW,341,0.0,0.0,100,0.00,,,0.13,Wunderground v.1.15,2013-01-04 06:50:00,
2013-01-03 22:55:00,48.7,48.7,30.29,NW,312,0.0,0.0,100,0.00,,,0.13,Wunderground v.1.15,2013-01-04 06:55:00,
2013-01-03 23:00:00,48.7,48.7,30.29,NW,312,0.0,0.0,100,0.00,,,0.13,Wunderground v.1.15,2013-01-04 07:00:00,
2013-01-03 23:05:00,48.7,48.7,30.29,NW,313,0.0,1.0,100,0.00,,,0.13,Wunderground v.1.15,2013-01-04 07:05:00,
2013-01-03 23:10:00,48.6,48.6,30.29,NW,313,0.0,1.0,100,0.00,,,0.13,Wunderground v.1.15,2013-01-04 07:10:00,
2013-01-03 23:20:00,48.5,48.5,30.29,NW,313,0.0,0.0,100,0.00,,,0.13,Wunderground v.1.15,2013-01-04 07:20:00,
2013-01-03 23:25:00,48.4,48.4,30.30,NW,313,0.0,0.0,100,0.00,,,0.13,Wunderground v.1.15,2013-01-04 07:25:00,
2013-01-03 23:30:00,48.3,48.3,30.30,NW,313,0.0,0.0,100,0.00,,,0.13,Wunderground v.1.15,2013-01-04 07:30:00,
2013-01-03 23:40:00,48.3,48.3,30.30,NW,313,0.0,2.0,100,0.00,,,0.13,Wunderground v.1.15,2013-01-04 07:40:00,
2013-01-03 23:45:00,48.2,48.2,30.30,NW,313,0.0,2.0,100,0.00,,,0.13,Wunderground v.1.15,2013-01-04 07:45:00,
2013-01-03 23:50:00,48.1,48.1,30.30,NW,313,0.0,0.0,100,0.00,,,0.13,Wunderground v.1.15,2013-01-04 07:50:00,